Search for airport 
image banner adimage banner adimage banner ad
image banner ad

28CA - Dos Palos

Located in Dos Palos, United States

ICAO - 28CA, IATA -

Data provided by Airmate  

General information

Coordinates: N36°57'45" W120°37'49"
Elevation is 118 feet MSL.
Magnetic variation is 15° East
View others Airports in California

Operational data

Special qualification required
Current time UTC:
Current local time:
Weather at : KMCE - Merced Rgnl/Macready Field ( 37 km )
METAR: KMCE 210053Z AUTO 31004KT 10SM CLR 30/07 A2991 RMK AO2 SLP127 T03000067
TAF: KMCE 202320Z 2100/2124 VRB04KT P6SM SKC
View NOTAMs / SUP AIP / TFR affecting this airport [VIEW]
Communications frequencies: [VIEW]

Runways:

RWY identifierQFULength (ft)Width (ft)SurfaceLDA (ft)
13221060EARTH
31221060EARTH

Airport contact information

Address: Dos Palos United States

Satellite view of 28CA